sensor_id;sensor_type;location;lat;lon;timestamp;P1;durP1;ratioP1;P2;durP2;ratioP2
59960;SDS011;55902;-37.980;-63.602;2023-12-28T01:00:57;4.25;;;2.20;;
59960;SDS011;55902;-37.980;-63.602;2023-12-28T01:03:24;4.30;;;1.98;;
59960;SDS011;55902;-37.980;-63.602;2023-12-28T01:05:51;4.75;;;1.90;;
59960;SDS011;55902;-37.980;-63.602;2023-12-28T01:08:19;3.83;;;2.00;;
59960;SDS011;55902;-37.980;-63.602;2023-12-28T01:11:07;4.95;;;1.98;;
59960;SDS011;55902;-37.980;-63.602;2023-12-28T01:13:36;4.18;;;2.03;;
59960;SDS011;55902;-37.980;-63.602;2023-12-28T01:16:04;4.78;;;1.90;;
59960;SDS011;55902;-37.980;-63.602;2023-12-28T01:18:35;3.30;;;2.00;;
59960;SDS011;55902;-37.980;-63.602;2023-12-28T01:21:01;4.22;;;2.00;;
59960;SDS011;55902;-37.980;-63.602;2023-12-28T01:23:30;2.78;;;1.90;;
59960;SDS011;55902;-37.980;-63.602;2023-12-28T01:26:14;5.00;;;1.90;;
59960;SDS011;55902;-37.980;-63.602;2023-12-28T01:28:42;3.65;;;1.83;;
59960;SDS011;55902;-37.980;-63.602;2023-12-28T01:31:11;3.15;;;1.80;;
59960;SDS011;55902;-37.980;-63.602;2023-12-28T01:33:38;3.33;;;1.88;;
59960;SDS011;55902;-37.980;-63.602;2023-12-28T01:36:20;2.58;;;1.70;;
59960;SDS011;55902;-37.980;-63.602;2023-12-28T01:38:48;2.45;;;1.90;;
59960;SDS011;55902;-37.980;-63.602;2023-12-28T01:41:15;3.83;;;1.70;;
59960;SDS011;55902;-37.980;-63.602;2023-12-28T01:43:42;3.25;;;1.77;;
59960;SDS011;55902;-37.980;-63.602;2023-12-28T01:46:13;2.70;;;1.70;;
59960;SDS011;55902;-37.980;-63.602;2023-12-28T01:48:47;3.28;;;1.83;;
59960;SDS011;55902;-37.980;-63.602;2023-12-28T01:51:16;4.95;;;2.10;;
59960;SDS011;55902;-37.980;-63.602;2023-12-28T01:53:43;3.40;;;1.80;;
59960;SDS011;55902;-37.980;-63.602;2023-12-28T01:56:13;2.15;;;1.90;;
59960;SDS011;55902;-37.980;-63.602;2023-12-28T01:58:42;3.17;;;1.98;;
59960;SDS011;55902;-37.980;-63.602;2023-12-28T02:01:10;3.40;;;2.00;;
59960;SDS011;55902;-37.980;-63.602;2023-12-28T02:03:38;3.53;;;1.90;;
59960;SDS011;55902;-37.980;-63.602;2023-12-28T02:06:06;3.05;;;2.03;;
59960;SDS011;55902;-37.980;-63.602;2023-12-28T02:08:33;4.18;;;2.00;;
59960;SDS011;55902;-37.980;-63.602;2023-12-28T02:11:00;3.40;;;2.10;;
59960;SDS011;55902;-37.980;-63.602;2023-12-28T02:13:27;3.47;;;2.10;;
59960;SDS011;55902;-37.980;-63.602;2023-12-28T02:15:57;3.38;;;1.95;;
59960;SDS011;55902;-37.980;-63.602;2023-12-28T02:18:38;3.38;;;1.90;;
59960;SDS011;55902;-37.980;-63.602;2023-12-28T02:21:10;3.63;;;2.10;;
59960;SDS011;55902;-37.980;-63.602;2023-12-28T02:23:48;3.53;;;2.05;;
59960;SDS011;55902;-37.980;-63.602;2023-12-28T02:26:16;4.97;;;2.10;;
59960;SDS011;55902;-37.980;-63.602;2023-12-28T02:28:44;4.22;;;1.90;;
59960;SDS011;55902;-37.980;-63.602;2023-12-28T02:31:19;4.63;;;2.00;;
59960;SDS011;55902;-37.980;-63.602;2023-12-28T02:34:22;4.38;;;1.80;;
59960;SDS011;55902;-37.980;-63.602;2023-12-28T02:36:57;2.40;;;1.70;;
59960;SDS011;55902;-37.980;-63.602;2023-12-28T02:39:26;4.10;;;1.83;;
59960;SDS011;55902;-37.980;-63.602;2023-12-28T02:41:55;2.45;;;1.75;;
59960;SDS011;55902;-37.980;-63.602;2023-12-28T02:44:29;4.03;;;1.75;;
59960;SDS011;55902;-37.980;-63.602;2023-12-28T02:46:59;2.63;;;1.80;;
59960;SDS011;55902;-37.980;-63.602;2023-12-28T02:49:26;3.38;;;1.67;;
59960;SDS011;55902;-37.980;-63.602;2023-12-28T02:51:53;2.53;;;1.83;;
59960;SDS011;55902;-37.980;-63.602;2023-12-28T02:54:20;6.13;;;1.92;;
59960;SDS011;55902;-37.980;-63.602;2023-12-28T02:56:47;3.60;;;1.60;;
59960;SDS011;55902;-37.980;-63.602;2023-12-28T02:59:15;3.47;;;1.90;;
59960;SDS011;55902;-37.980;-63.602;2023-12-28T03:01:42;4.07;;;1.70;;
59960;SDS011;55902;-37.980;-63.602;2023-12-28T03:04:13;2.22;;;1.90;;
59960;SDS011;55902;-37.980;-63.602;2023-12-28T03:06:40;4.85;;;1.90;;
59960;SDS011;55902;-37.980;-63.602;2023-12-28T03:09:13;4.38;;;1.90;;
59960;SDS011;55902;-37.980;-63.602;2023-12-28T03:11:44;4.22;;;2.08;;
59960;SDS011;55902;-37.980;-63.602;2023-12-28T03:14:11;7.32;;;1.77;;
59960;SDS011;55902;-37.980;-63.602;2023-12-28T03:16:38;2.67;;;1.80;;
59960;SDS011;55902;-37.980;-63.602;2023-12-28T03:19:05;3.38;;;1.90;;
59960;SDS011;55902;-37.980;-63.602;2023-12-28T03:21:32;3.58;;;1.92;;
59960;SDS011;55902;-37.980;-63.602;2023-12-28T03:23:59;4.88;;;1.70;;
59960;SDS011;55902;-37.980;-63.602;2023-12-28T03:26:26;4.68;;;1.90;;
59960;SDS011;55902;-37.980;-63.602;2023-12-28T03:28:53;3.35;;;1.70;;
59960;SDS011;55902;-37.980;-63.602;2023-12-28T03:31:20;3.80;;;1.55;;
59960;SDS011;55902;-37.980;-63.602;2023-12-28T03:33:47;3.78;;;1.85;;
59960;SDS011;55902;-37.980;-63.602;2023-12-28T03:36:20;3.45;;;1.77;;
59960;SDS011;55902;-37.980;-63.602;2023-12-28T03:38:48;2.97;;;1.60;;
59960;SDS011;55902;-37.980;-63.602;2023-12-28T03:41:16;4.65;;;1.80;;
59960;SDS011;55902;-37.980;-63.602;2023-12-28T03:43:47;3.72;;;1.50;;
59960;SDS011;55902;-37.980;-63.602;2023-12-28T03:46:15;4.03;;;1.50;;
59960;SDS011;55902;-37.980;-63.602;2023-12-28T03:48:42;2.70;;;1.60;;
59960;SDS011;55902;-37.980;-63.602;2023-12-28T03:51:13;4.00;;;1.60;;
59960;SDS011;55902;-37.980;-63.602;2023-12-28T03:53:41;4.22;;;1.55;;
59960;SDS011;55902;-37.980;-63.602;2023-12-28T03:56:17;3.75;;;1.60;;
59960;SDS011;55902;-37.980;-63.602;2023-12-28T03:58:48;3.90;;;1.60;;
59960;SDS011;55902;-37.980;-63.602;2023-12-28T04:01:19;2.20;;;1.65;;
59960;SDS011;55902;-37.980;-63.602;2023-12-28T04:03:47;2.05;;;1.60;;
59960;SDS011;55902;-37.980;-63.602;2023-12-28T04:06:14;2.83;;;1.50;;
59960;SDS011;55902;-37.980;-63.602;2023-12-28T04:08:42;3.95;;;1.50;;
59960;SDS011;55902;-37.980;-63.602;2023-12-28T04:11:09;2.03;;;1.50;;
59960;SDS011;55902;-37.980;-63.602;2023-12-28T04:13:36;4.03;;;1.60;;
59960;SDS011;55902;-37.980;-63.602;2023-12-28T04:16:04;2.88;;;1.55;;
59960;SDS011;55902;-37.980;-63.602;2023-12-28T04:18:31;2.97;;;1.40;;
59960;SDS011;55902;-37.980;-63.602;2023-12-28T04:20:59;3.53;;;1.52;;
59960;SDS011;55902;-37.980;-63.602;2023-12-28T04:23:25;3.88;;;1.50;;
59960;SDS011;55902;-37.980;-63.602;2023-12-28T04:25:52;3.30;;;1.58;;
59960;SDS011;55902;-37.980;-63.602;2023-12-28T04:28:19;5.63;;;1.50;;
59960;SDS011;55902;-37.980;-63.602;2023-12-28T04:30:46;3.53;;;1.80;;
59960;SDS011;55902;-37.980;-63.602;2023-12-28T04:33:16;3.35;;;1.83;;
59960;SDS011;55902;-37.980;-63.602;2023-12-28T04:35:44;2.13;;;1.60;;
59960;SDS011;55902;-37.980;-63.602;2023-12-28T04:38:12;3.00;;;1.52;;
59960;SDS011;55902;-37.980;-63.602;2023-12-28T04:40:39;2.45;;;1.60;;
59960;SDS011;55902;-37.980;-63.602;2023-12-28T04:43:06;3.42;;;1.52;;
59960;SDS011;55902;-37.980;-63.602;2023-12-28T04:45:33;2.38;;;1.77;;
59960;SDS011;55902;-37.980;-63.602;2023-12-28T04:48:00;2.85;;;1.63;;
59960;SDS011;55902;-37.980;-63.602;2023-12-28T04:50:27;2.95;;;1.70;;
59960;SDS011;55902;-37.980;-63.602;2023-12-28T04:52:55;2.72;;;1.88;;
59960;SDS011;55902;-37.980;-63.602;2023-12-28T04:55:22;3.40;;;1.60;;
59960;SDS011;55902;-37.980;-63.602;2023-12-28T04:57:49;3.95;;;1.90;;
59960;SDS011;55902;-37.980;-63.602;2023-12-28T05:00:16;3.38;;;1.90;;
59960;SDS011;55902;-37.980;-63.602;2023-12-28T05:02:43;2.42;;;1.75;;
59960;SDS011;55902;-37.980;-63.602;2023-12-28T05:05:11;4.22;;;1.95;;
59960;SDS011;55902;-37.980;-63.602;2023-12-28T05:07:38;3.45;;;1.90;;
59960;SDS011;55902;-37.980;-63.602;2023-12-28T05:10:06;4.40;;;1.70;;
59960;SDS011;55902;-37.980;-63.602;2023-12-28T05:12:33;2.95;;;2.10;;
59960;SDS011;55902;-37.980;-63.602;2023-12-28T05:15:00;3.03;;;1.90;;
59960;SDS011;55902;-37.980;-63.602;2023-12-28T05:17:27;4.80;;;1.90;;
59960;SDS011;55902;-37.980;-63.602;2023-12-28T05:19:54;3.53;;;1.90;;
59960;SDS011;55902;-37.980;-63.602;2023-12-28T05:22:21;2.65;;;1.67;;
59960;SDS011;55902;-37.980;-63.602;2023-12-28T05:24:48;3.67;;;1.80;;
59960;SDS011;55902;-37.980;-63.602;2023-12-28T05:27:15;4.45;;;2.00;;
59960;SDS011;55902;-37.980;-63.602;2023-12-28T05:29:42;3.20;;;1.90;;
59960;SDS011;55902;-37.980;-63.602;2023-12-28T05:32:10;3.22;;;2.10;;
59960;SDS011;55902;-37.980;-63.602;2023-12-28T05:34:37;3.97;;;2.00;;
59960;SDS011;55902;-37.980;-63.602;2023-12-28T05:37:04;3.25;;;2.20;;
59960;SDS011;55902;-37.980;-63.602;2023-12-28T05:39:30;2.50;;;1.88;;
59960;SDS011;55902;-37.980;-63.602;2023-12-28T05:41:57;2.83;;;1.98;;
59960;SDS011;55902;-37.980;-63.602;2023-12-28T05:44:24;3.08;;;1.83;;
59960;SDS011;55902;-37.980;-63.602;2023-12-28T05:46:51;2.97;;;1.80;;
59960;SDS011;55902;-37.980;-63.602;2023-12-28T05:49:18;2.67;;;1.90;;
59960;SDS011;55902;-37.980;-63.602;2023-12-28T05:51:45;2.35;;;1.80;;
59960;SDS011;55902;-37.980;-63.602;2023-12-28T05:54:12;2.55;;;2.00;;
59960;SDS011;55902;-37.980;-63.602;2023-12-28T05:56:39;3.53;;;2.00;;
59960;SDS011;55902;-37.980;-63.602;2023-12-28T05:59:06;3.95;;;2.03;;
59960;SDS011;55902;-37.980;-63.602;2023-12-28T06:01:40;4.20;;;2.03;;
59960;SDS011;55902;-37.980;-63.602;2023-12-28T06:04:08;3.00;;;2.30;;
59960;SDS011;55902;-37.980;-63.602;2023-12-28T06:06:35;3.80;;;2.00;;
59960;SDS011;55902;-37.980;-63.602;2023-12-28T06:09:03;2.97;;;2.22;;
59960;SDS011;55902;-37.980;-63.602;2023-12-28T06:11:30;5.70;;;2.38;;
59960;SDS011;55902;-37.980;-63.602;2023-12-28T06:13:57;4.28;;;2.20;;
59960;SDS011;55902;-37.980;-63.602;2023-12-28T06:16:24;4.60;;;2.22;;
59960;SDS011;55902;-37.980;-63.602;2023-12-28T06:18:51;3.35;;;1.98;;
59960;SDS011;55902;-37.980;-63.602;2023-12-28T06:21:18;3.08;;;2.17;;
59960;SDS011;55902;-37.980;-63.602;2023-12-28T06:23:45;3.22;;;2.22;;
59960;SDS011;55902;-37.980;-63.602;2023-12-28T06:26:12;3.58;;;2.30;;
59960;SDS011;55902;-37.980;-63.602;2023-12-28T06:28:39;3.50;;;2.20;;
59960;SDS011;55902;-37.980;-63.602;2023-12-28T06:31:07;4.68;;;2.28;;
59960;SDS011;55902;-37.980;-63.602;2023-12-28T06:33:33;3.90;;;2.40;;
59960;SDS011;55902;-37.980;-63.602;2023-12-28T06:36:09;5.63;;;2.50;;
59960;SDS011;55902;-37.980;-63.602;2023-12-28T06:38:37;3.78;;;2.20;;
59960;SDS011;55902;-37.980;-63.602;2023-12-28T06:41:13;2.92;;;2.10;;
59960;SDS011;55902;-37.980;-63.602;2023-12-28T06:43:41;3.40;;;2.50;;
59960;SDS011;55902;-37.980;-63.602;2023-12-28T06:46:07;5.05;;;2.50;;
59960;SDS011;55902;-37.980;-63.602;2023-12-28T06:48:34;2.75;;;2.33;;
59960;SDS011;55902;-37.980;-63.602;2023-12-28T06:51:03;4.72;;;2.70;;
59960;SDS011;55902;-37.980;-63.602;2023-12-28T06:53:30;4.65;;;2.55;;
59960;SDS011;55902;-37.980;-63.602;2023-12-28T06:55:57;4.10;;;2.80;;
59960;SDS011;55902;-37.980;-63.602;2023-12-28T06:58:24;3.80;;;2.53;;
59960;SDS011;55902;-37.980;-63.602;2023-12-28T07:00:51;4.00;;;2.22;;
59960;SDS011;55902;-37.980;-63.602;2023-12-28T07:03:18;3.90;;;2.40;;
59960;SDS011;55902;-37.980;-63.602;2023-12-28T07:05:45;3.80;;;2.45;;
59960;SDS011;55902;-37.980;-63.602;2023-12-28T07:08:12;6.55;;;2.85;;
59960;SDS011;55902;-37.980;-63.602;2023-12-28T07:10:39;3.50;;;2.60;;
59960;SDS011;55902;-37.980;-63.602;2023-12-28T07:13:06;3.20;;;2.50;;
59960;SDS011;55902;-37.980;-63.602;2023-12-28T07:15:34;4.30;;;2.90;;
59960;SDS011;55902;-37.980;-63.602;2023-12-28T07:18:01;4.10;;;2.75;;
59960;SDS011;55902;-37.980;-63.602;2023-12-28T07:20:28;4.90;;;2.70;;
59960;SDS011;55902;-37.980;-63.602;2023-12-28T07:22:55;4.47;;;2.72;;
59960;SDS011;55902;-37.980;-63.602;2023-12-28T07:25:22;8.40;;;2.92;;
59960;SDS011;55902;-37.980;-63.602;2023-12-28T07:27:49;3.38;;;3.00;;
59960;SDS011;55902;-37.980;-63.602;2023-12-28T07:30:16;5.90;;;3.10;;
59960;SDS011;55902;-37.980;-63.602;2023-12-28T07:32:43;4.13;;;2.90;;
59960;SDS011;55902;-37.980;-63.602;2023-12-28T07:35:13;4.07;;;3.20;;
59960;SDS011;55902;-37.980;-63.602;2023-12-28T07:37:40;3.63;;;2.80;;
59960;SDS011;55902;-37.980;-63.602;2023-12-28T07:40:07;4.63;;;2.90;;
59960;SDS011;55902;-37.980;-63.602;2023-12-28T07:42:34;5.65;;;3.17;;
59960;SDS011;55902;-37.980;-63.602;2023-12-28T07:45:01;4.15;;;2.95;;
59960;SDS011;55902;-37.980;-63.602;2023-12-28T07:47:28;4.68;;;2.90;;
59960;SDS011;55902;-37.980;-63.602;2023-12-28T07:49:55;3.30;;;2.85;;
59960;SDS011;55902;-37.980;-63.602;2023-12-28T07:52:22;3.88;;;2.80;;
59960;SDS011;55902;-37.980;-63.602;2023-12-28T07:54:49;6.60;;;3.53;;
59960;SDS011;55902;-37.980;-63.602;2023-12-28T07:57:16;5.85;;;3.33;;
59960;SDS011;55902;-37.980;-63.602;2023-12-28T07:59:44;4.43;;;3.35;;
59960;SDS011;55902;-37.980;-63.602;2023-12-28T08:02:10;3.97;;;3.20;;
59960;SDS011;55902;-37.980;-63.602;2023-12-28T08:04:37;9.43;;;3.45;;
59960;SDS011;55902;-37.980;-63.602;2023-12-28T08:07:04;7.25;;;3.50;;
59960;SDS011;55902;-37.980;-63.602;2023-12-28T08:09:34;3.63;;;3.03;;
59960;SDS011;55902;-37.980;-63.602;2023-12-28T08:12:01;3.83;;;3.40;;
59960;SDS011;55902;-37.980;-63.602;2023-12-28T08:14:28;4.78;;;3.35;;
59960;SDS011;55902;-37.980;-63.602;2023-12-28T08:16:55;3.53;;;3.15;;
59960;SDS011;55902;-37.980;-63.602;2023-12-28T08:19:22;3.63;;;3.20;;
59960;SDS011;55902;-37.980;-63.602;2023-12-28T08:21:49;6.07;;;3.55;;
59960;SDS011;55902;-37.980;-63.602;2023-12-28T08:24:16;5.10;;;3.78;;
59960;SDS011;55902;-37.980;-63.602;2023-12-28T08:26:43;4.03;;;2.90;;
59960;SDS011;55902;-37.980;-63.602;2023-12-28T08:29:09;5.53;;;3.70;;
59960;SDS011;55902;-37.980;-63.602;2023-12-28T08:31:37;4.50;;;3.05;;
59960;SDS011;55902;-37.980;-63.602;2023-12-28T08:34:04;4.38;;;3.08;;
59960;SDS011;55902;-37.980;-63.602;2023-12-28T08:36:31;6.65;;;3.40;;
59960;SDS011;55902;-37.980;-63.602;2023-12-28T08:38:58;5.03;;;3.10;;
59960;SDS011;55902;-37.980;-63.602;2023-12-28T08:41:24;5.53;;;3.50;;
59960;SDS011;55902;-37.980;-63.602;2023-12-28T08:43:52;4.30;;;3.90;;
59960;SDS011;55902;-37.980;-63.602;2023-12-28T08:46:20;6.75;;;4.13;;
59960;SDS011;55902;-37.980;-63.602;2023-12-28T08:48:54;6.47;;;4.00;;
59960;SDS011;55902;-37.980;-63.602;2023-12-28T08:51:21;5.72;;;4.25;;
59960;SDS011;55902;-37.980;-63.602;2023-12-28T08:53:48;4.60;;;3.53;;
59960;SDS011;55902;-37.980;-63.602;2023-12-28T08:56:21;5.95;;;3.70;;
59960;SDS011;55902;-37.980;-63.602;2023-12-28T08:58:48;4.32;;;3.42;;
59960;SDS011;55902;-37.980;-63.602;2023-12-28T09:01:21;5.20;;;4.00;;
59960;SDS011;55902;-37.980;-63.602;2023-12-28T09:03:51;5.13;;;3.88;;
59960;SDS011;55902;-37.980;-63.602;2023-12-28T09:06:19;7.00;;;3.90;;
59960;SDS011;55902;-37.980;-63.602;2023-12-28T09:08:48;4.82;;;3.80;;
59960;SDS011;55902;-37.980;-63.602;2023-12-28T09:11:19;5.32;;;3.70;;
59960;SDS011;55902;-37.980;-63.602;2023-12-28T09:17:22;4.10;;;3.47;;
59960;SDS011;55902;-37.980;-63.602;2023-12-28T09:19:49;4.78;;;3.50;;
59960;SDS011;55902;-37.980;-63.602;2023-12-28T09:22:16;5.22;;;4.15;;
59960;SDS011;55902;-37.980;-63.602;2023-12-28T09:24:43;5.95;;;3.78;;
59960;SDS011;55902;-37.980;-63.602;2023-12-28T09:27:10;4.25;;;3.85;;
59960;SDS011;55902;-37.980;-63.602;2023-12-28T09:29:37;5.93;;;4.13;;
59960;SDS011;55902;-37.980;-63.602;2023-12-28T09:32:04;6.80;;;4.03;;
59960;SDS011;55902;-37.980;-63.602;2023-12-28T09:34:31;5.50;;;3.90;;
59960;SDS011;55902;-37.980;-63.602;2023-12-28T09:36:59;6.43;;;3.85;;
59960;SDS011;55902;-37.980;-63.602;2023-12-28T09:39:47;7.22;;;3.80;;
59960;SDS011;55902;-37.980;-63.602;2023-12-28T09:45:38;5.43;;;4.05;;
59960;SDS011;55902;-37.980;-63.602;2023-12-28T09:48:18;5.10;;;3.85;;
59960;SDS011;55902;-37.980;-63.602;2023-12-28T09:50:50;5.22;;;3.63;;
59960;SDS011;55902;-37.980;-63.602;2023-12-28T09:53:25;4.85;;;3.80;;
59960;SDS011;55902;-37.980;-63.602;2023-12-28T09:55:53;5.13;;;4.10;;
59960;SDS011;55902;-37.980;-63.602;2023-12-28T09:58:23;4.55;;;3.50;;
59960;SDS011;55902;-37.980;-63.602;2023-12-28T10:00:51;5.85;;;3.88;;
59960;SDS011;55902;-37.980;-63.602;2023-12-28T10:03:19;7.03;;;4.07;;
59960;SDS011;55902;-37.980;-63.602;2023-12-28T10:05:47;6.53;;;4.38;;
59960;SDS011;55902;-37.980;-63.602;2023-12-28T10:08:14;6.68;;;4.15;;
59960;SDS011;55902;-37.980;-63.602;2023-12-28T10:10:41;4.78;;;3.72;;
59960;SDS011;55902;-37.980;-63.602;2023-12-28T10:13:16;6.20;;;3.30;;
59960;SDS011;55902;-37.980;-63.602;2023-12-28T10:15:43;4.22;;;3.33;;
59960;SDS011;55902;-37.980;-63.602;2023-12-28T10:18:10;4.82;;;3.05;;
59960;SDS011;55902;-37.980;-63.602;2023-12-28T10:20:37;7.85;;;4.07;;
59960;SDS011;55902;-37.980;-63.602;2023-12-28T10:23:04;3.50;;;2.90;;
59960;SDS011;55902;-37.980;-63.602;2023-12-28T10:25:32;6.45;;;3.90;;
59960;SDS011;55902;-37.980;-63.602;2023-12-28T10:28:03;7.13;;;4.10;;
59960;SDS011;55902;-37.980;-63.602;2023-12-28T10:33:00;8.15;;;3.85;;
59960;SDS011;55902;-37.980;-63.602;2023-12-28T10:35:30;5.45;;;3.30;;
59960;SDS011;55902;-37.980;-63.602;2023-12-28T10:37:59;7.75;;;3.10;;
59960;SDS011;55902;-37.980;-63.602;2023-12-28T10:40:29;6.05;;;3.05;;
59960;SDS011;55902;-37.980;-63.602;2023-12-28T10:42:58;4.70;;;3.25;;
59960;SDS011;55902;-37.980;-63.602;2023-12-28T10:45:32;5.50;;;3.20;;
59960;SDS011;55902;-37.980;-63.602;2023-12-28T10:48:09;8.93;;;3.60;;
59960;SDS011;55902;-37.980;-63.602;2023-12-28T10:50:40;7.15;;;3.30;;
59960;SDS011;55902;-37.980;-63.602;2023-12-28T10:56:09;6.95;;;3.55;;
59960;SDS011;55902;-37.980;-63.602;2023-12-28T10:58:58;5.85;;;2.97;;
59960;SDS011;55902;-37.980;-63.602;2023-12-28T11:01:39;5.78;;;3.42;;
59960;SDS011;55902;-37.980;-63.602;2023-12-28T11:04:10;5.63;;;3.15;;
59960;SDS011;55902;-37.980;-63.602;2023-12-28T11:06:40;4.15;;;3.00;;
59960;SDS011;55902;-37.980;-63.602;2023-12-28T11:09:09;9.63;;;3.50;;
59960;SDS011;55902;-37.980;-63.602;2023-12-28T11:11:37;6.05;;;3.38;;
59960;SDS011;55902;-37.980;-63.602;2023-12-28T11:14:05;5.43;;;3.35;;
59960;SDS011;55902;-37.980;-63.602;2023-12-28T11:16:33;3.65;;;3.20;;
59960;SDS011;55902;-37.980;-63.602;2023-12-28T11:19:00;9.25;;;3.75;;
59960;SDS011;55902;-37.980;-63.602;2023-12-28T11:21:29;6.68;;;3.28;;
59960;SDS011;55902;-37.980;-63.602;2023-12-28T11:23:57;6.82;;;3.50;;
59960;SDS011;55902;-37.980;-63.602;2023-12-28T11:26:25;7.60;;;3.53;;
59960;SDS011;55902;-37.980;-63.602;2023-12-28T11:29:00;5.82;;;3.50;;
59960;SDS011;55902;-37.980;-63.602;2023-12-28T11:31:28;5.22;;;3.53;;
59960;SDS011;55902;-37.980;-63.602;2023-12-28T11:33:59;5.75;;;3.60;;
59960;SDS011;55902;-37.980;-63.602;2023-12-28T11:36:32;5.90;;;3.10;;
59960;SDS011;55902;-37.980;-63.602;2023-12-28T11:39:05;6.68;;;3.78;;
59960;SDS011;55902;-37.980;-63.602;2023-12-28T11:41:34;7.10;;;3.47;;
59960;SDS011;55902;-37.980;-63.602;2023-12-28T11:44:05;6.05;;;3.60;;
59960;SDS011;55902;-37.980;-63.602;2023-12-28T11:46:32;4.50;;;3.13;;
59960;SDS011;55902;-37.980;-63.602;2023-12-28T11:49:10;4.80;;;3.10;;
59960;SDS011;55902;-37.980;-63.602;2023-12-28T11:51:38;6.53;;;3.15;;
59960;SDS011;55902;-37.980;-63.602;2023-12-28T11:54:06;5.68;;;3.08;;
59960;SDS011;55902;-37.980;-63.602;2023-12-28T11:56:33;5.47;;;3.20;;
59960;SDS011;55902;-37.980;-63.602;2023-12-28T11:59:03;9.02;;;5.20;;
59960;SDS011;55902;-37.980;-63.602;2023-12-28T12:01:33;7.10;;;3.40;;
59960;SDS011;55902;-37.980;-63.602;2023-12-28T12:03:59;6.28;;;3.20;;
59960;SDS011;55902;-37.980;-63.602;2023-12-28T12:06:26;7.03;;;3.20;;
59960;SDS011;55902;-37.980;-63.602;2023-12-28T12:09:14;5.65;;;2.90;;
59960;SDS011;55902;-37.980;-63.602;2023-12-28T12:11:41;6.25;;;3.10;;
59960;SDS011;55902;-37.980;-63.602;2023-12-28T12:14:10;3.63;;;2.58;;
59960;SDS011;55902;-37.980;-63.602;2023-12-28T12:16:38;4.00;;;2.85;;
59960;SDS011;55902;-37.980;-63.602;2023-12-28T12:19:05;5.50;;;2.65;;
59960;SDS011;55902;-37.980;-63.602;2023-12-28T12:21:33;5.95;;;2.60;;
59960;SDS011;55902;-37.980;-63.602;2023-12-28T12:24:03;4.93;;;2.30;;
59960;SDS011;55902;-37.980;-63.602;2023-12-28T12:26:30;4.63;;;2.63;;
59960;SDS011;55902;-37.980;-63.602;2023-12-28T12:28:57;4.20;;;2.35;;
59960;SDS011;55902;-37.980;-63.602;2023-12-28T12:31:32;6.95;;;2.30;;
59960;SDS011;55902;-37.980;-63.602;2023-12-28T12:34:00;5.65;;;2.50;;
59960;SDS011;55902;-37.980;-63.602;2023-12-28T12:36:27;4.40;;;2.00;;
59960;SDS011;55902;-37.980;-63.602;2023-12-28T12:38:54;4.70;;;2.15;;
59960;SDS011;55902;-37.980;-63.602;2023-12-28T12:41:22;5.18;;;2.40;;
59960;SDS011;55902;-37.980;-63.602;2023-12-28T12:43:49;2.65;;;1.92;;
59960;SDS011;55902;-37.980;-63.602;2023-12-28T12:46:16;5.53;;;1.98;;
59960;SDS011;55902;-37.980;-63.602;2023-12-28T12:48:45;3.53;;;1.70;;
59960;SDS011;55902;-37.980;-63.602;2023-12-28T12:51:27;3.90;;;1.98;;
59960;SDS011;55902;-37.980;-63.602;2023-12-28T12:53:57;5.60;;;1.85;;
59960;SDS011;55902;-37.980;-63.602;2023-12-28T12:56:28;3.50;;;1.60;;
59960;SDS011;55902;-37.980;-63.602;2023-12-28T12:58:56;2.40;;;1.63;;
59960;SDS011;55902;-37.980;-63.602;2023-12-28T13:01:23;6.82;;;1.98;;
59960;SDS011;55902;-37.980;-63.602;2023-12-28T13:03:51;3.67;;;1.70;;
59960;SDS011;55902;-37.980;-63.602;2023-12-28T13:06:18;5.00;;;2.13;;
59960;SDS011;55902;-37.980;-63.602;2023-12-28T13:08:51;4.07;;;1.92;;
59960;SDS011;55902;-37.980;-63.602;2023-12-28T13:11:19;5.50;;;1.60;;
59960;SDS011;55902;-37.980;-63.602;2023-12-28T13:13:52;8.80;;;2.33;;
59960;SDS011;55902;-37.980;-63.602;2023-12-28T13:16:19;9.40;;;2.00;;
59960;SDS011;55902;-37.980;-63.602;2023-12-28T13:18:46;11.23;;;3.33;;
59960;SDS011;55902;-37.980;-63.602;2023-12-28T13:21:13;3.50;;;1.70;;
59960;SDS011;55902;-37.980;-63.602;2023-12-28T13:23:40;4.60;;;1.52;;
59960;SDS011;55902;-37.980;-63.602;2023-12-28T13:26:07;2.03;;;1.42;;
59960;SDS011;55902;-37.980;-63.602;2023-12-28T13:28:34;2.60;;;1.30;;
59960;SDS011;55902;-37.980;-63.602;2023-12-28T13:31:01;3.42;;;1.30;;
59960;SDS011;55902;-37.980;-63.602;2023-12-28T13:33:28;4.75;;;1.30;;
59960;SDS011;55902;-37.980;-63.602;2023-12-28T13:35:55;3.42;;;1.30;;
59960;SDS011;55902;-37.980;-63.602;2023-12-28T13:38:26;4.97;;;1.20;;
59960;SDS011;55902;-37.980;-63.602;2023-12-28T13:43:43;4.05;;;1.40;;
59960;SDS011;55902;-37.980;-63.602;2023-12-28T13:46:10;3.00;;;1.20;;
59960;SDS011;55902;-37.980;-63.602;2023-12-28T13:48:40;2.38;;;1.20;;
59960;SDS011;55902;-37.980;-63.602;2023-12-28T13:51:11;2.30;;;1.10;;
59960;SDS011;55902;-37.980;-63.602;2023-12-28T13:53:38;4.43;;;1.20;;
59960;SDS011;55902;-37.980;-63.602;2023-12-28T13:56:06;5.00;;;1.52;;
59960;SDS011;55902;-37.980;-63.602;2023-12-28T13:58:36;3.88;;;1.40;;
59960;SDS011;55902;-37.980;-63.602;2023-12-28T14:01:04;5.35;;;1.40;;
59960;SDS011;55902;-37.980;-63.602;2023-12-28T14:03:31;4.93;;;1.48;;
59960;SDS011;55902;-37.980;-63.602;2023-12-28T14:06:02;2.63;;;1.30;;
59960;SDS011;55902;-37.980;-63.602;2023-12-28T14:08:29;3.05;;;1.10;;
59960;SDS011;55902;-37.980;-63.602;2023-12-28T14:10:56;3.35;;;1.35;;
59960;SDS011;55902;-37.980;-63.602;2023-12-28T14:13:22;3.33;;;1.08;;
59960;SDS011;55902;-37.980;-63.602;2023-12-28T14:15:50;4.13;;;1.20;;
59960;SDS011;55902;-37.980;-63.602;2023-12-28T14:18:17;3.50;;;1.20;;
59960;SDS011;55902;-37.980;-63.602;2023-12-28T14:20:44;2.63;;;1.08;;
59960;SDS011;55902;-37.980;-63.602;2023-12-28T14:23:16;5.38;;;1.20;;
59960;SDS011;55902;-37.980;-63.602;2023-12-28T14:25:45;2.03;;;1.02;;
59960;SDS011;55902;-37.980;-63.602;2023-12-28T14:31:02;4.85;;;1.10;;
59960;SDS011;55902;-37.980;-63.602;2023-12-28T14:33:30;2.67;;;1.15;;
59960;SDS011;55902;-37.980;-63.602;2023-12-28T14:35:57;2.92;;;1.40;;
59960;SDS011;55902;-37.980;-63.602;2023-12-28T14:38:25;4.07;;;1.00;;
59960;SDS011;55902;-37.980;-63.602;2023-12-28T14:40:52;3.35;;;1.00;;
59960;SDS011;55902;-37.980;-63.602;2023-12-28T14:43:21;2.63;;;0.90;;
59960;SDS011;55902;-37.980;-63.602;2023-12-28T14:45:48;2.55;;;0.90;;
59960;SDS011;55902;-37.980;-63.602;2023-12-28T14:48:17;2.95;;;1.00;;
59960;SDS011;55902;-37.980;-63.602;2023-12-28T14:50:44;3.30;;;0.98;;
59960;SDS011;55902;-37.980;-63.602;2023-12-28T14:53:11;2.92;;;0.90;;
59960;SDS011;55902;-37.980;-63.602;2023-12-28T14:55:38;2.28;;;0.90;;
59960;SDS011;55902;-37.980;-63.602;2023-12-28T14:58:06;2.25;;;0.90;;
59960;SDS011;55902;-37.980;-63.602;2023-12-28T15:00:33;3.55;;;1.00;;
59960;SDS011;55902;-37.980;-63.602;2023-12-28T15:03:00;2.42;;;0.90;;
59960;SDS011;55902;-37.980;-63.602;2023-12-28T15:05:28;2.22;;;0.90;;
59960;SDS011;55902;-37.980;-63.602;2023-12-28T15:07:55;4.47;;;0.90;;
59960;SDS011;55902;-37.980;-63.602;2023-12-28T15:10:22;5.85;;;0.88;;
59960;SDS011;55902;-37.980;-63.602;2023-12-28T15:12:49;2.58;;;0.85;;
59960;SDS011;55902;-37.980;-63.602;2023-12-28T15:15:16;4.30;;;0.90;;
59960;SDS011;55902;-37.980;-63.602;2023-12-28T15:17:43;2.47;;;0.90;;
59960;SDS011;55902;-37.980;-63.602;2023-12-28T15:20:11;2.13;;;0.80;;
59960;SDS011;55902;-37.980;-63.602;2023-12-28T15:22:38;2.35;;;0.88;;
59960;SDS011;55902;-37.980;-63.602;2023-12-28T15:25:05;2.83;;;0.80;;
59960;SDS011;55902;-37.980;-63.602;2023-12-28T15:27:32;3.00;;;0.77;;
59960;SDS011;55902;-37.980;-63.602;2023-12-28T15:30:00;3.53;;;0.70;;
59960;SDS011;55902;-37.980;-63.602;2023-12-28T15:32:28;4.22;;;1.55;;
59960;SDS011;55902;-37.980;-63.602;2023-12-28T15:34:55;5.20;;;1.17;;